sensor_id;sensor_type;location;lat;lon;timestamp;pressure;altitude;pressure_sealevel;temperature;humidity
21236;BME280;10775;42.678;26.324;2023-06-14T00:02:11;98296.06;;;21.55;78.67
21236;BME280;10775;42.678;26.324;2023-06-14T00:04:37;98300.84;;;21.24;80.69
21236;BME280;10775;42.678;26.324;2023-06-14T00:07:05;98294.75;;;21.86;77.85
21236;BME280;10775;42.678;26.324;2023-06-14T00:09:33;98295.66;;;21.98;75.48
21236;BME280;10775;42.678;26.324;2023-06-14T00:11:58;98297.97;;;21.78;77.60
21236;BME280;10775;42.678;26.324;2023-06-14T00:14:24;98295.25;;;21.91;77.29
21236;BME280;10775;42.678;26.324;2023-06-14T00:16:49;98293.44;;;21.91;77.11
21236;BME280;10775;42.678;26.324;2023-06-14T00:19:17;98294.22;;;21.81;77.28
21236;BME280;10775;42.678;26.324;2023-06-14T00:21:43;98290.41;;;21.72;77.83
21236;BME280;10775;42.678;26.324;2023-06-14T00:24:08;98276.16;;;21.73;77.54
21236;BME280;10775;42.678;26.324;2023-06-14T00:26:34;98280.31;;;21.64;78.07
21236;BME280;10775;42.678;26.324;2023-06-14T00:28:59;98278.97;;;21.46;78.95
21236;BME280;10775;42.678;26.324;2023-06-14T00:31:25;98278.97;;;21.46;79.05
21236;BME280;10775;42.678;26.324;2023-06-14T00:33:50;98282.75;;;21.55;78.88
21236;BME280;10775;42.678;26.324;2023-06-14T00:36:16;98276.91;;;21.49;78.66
21236;BME280;10775;42.678;26.324;2023-06-14T00:38:41;98275.44;;;21.33;78.98
21236;BME280;10775;42.678;26.324;2023-06-14T00:41:07;98274.66;;;20.67;83.12
21236;BME280;10775;42.678;26.324;2023-06-14T00:43:32;98267.31;;;20.57;83.69
21236;BME280;10775;42.678;26.324;2023-06-14T00:46:00;98275.53;;;21.05;81.82
21236;BME280;10775;42.678;26.324;2023-06-14T00:48:25;98278.91;;;20.42;79.31
21236;BME280;10775;42.678;26.324;2023-06-14T00:50:52;98283.69;;;19.83;87.40
21236;BME280;10775;42.678;26.324;2023-06-14T00:53:18;98290.19;;;18.77;92.19
21236;BME280;10775;42.678;26.324;2023-06-14T00:55:44;98274.50;;;19.17;90.13
21236;BME280;10775;42.678;26.324;2023-06-14T00:58:10;98279.06;;;19.99;88.05
21236;BME280;10775;42.678;26.324;2023-06-14T01:00:36;98266.41;;;20.84;83.23
21236;BME280;10775;42.678;26.324;2023-06-14T01:03:01;98279.16;;;20.52;82.58
21236;BME280;10775;42.678;26.324;2023-06-14T01:05:28;98271.72;;;20.17;85.73
21236;BME280;10775;42.678;26.324;2023-06-14T01:13:51;98263.28;;;20.65;80.67
21236;BME280;10775;42.678;26.324;2023-06-14T01:16:10;98259.59;;;21.18;80.99
21236;BME280;10775;42.678;26.324;2023-06-14T01:18:36;98264.28;;;21.27;79.84
21236;BME280;10775;42.678;26.324;2023-06-14T01:21:01;98265.97;;;21.28;79.75
21236;BME280;10775;42.678;26.324;2023-06-14T01:23:31;98261.75;;;21.39;79.37
21236;BME280;10775;42.678;26.324;2023-06-14T01:26:00;98259.59;;;21.44;78.71
21236;BME280;10775;42.678;26.324;2023-06-14T01:28:29;98260.97;;;21.11;80.32
21236;BME280;10775;42.678;26.324;2023-06-14T01:31:00;98261.84;;;21.37;78.98
21236;BME280;10775;42.678;26.324;2023-06-14T01:33:28;98265.88;;;21.43;78.40
21236;BME280;10775;42.678;26.324;2023-06-14T01:35:54;98258.53;;;21.34;78.72
21236;BME280;10775;42.678;26.324;2023-06-14T01:38:23;98256.19;;;21.16;78.23
21236;BME280;10775;42.678;26.324;2023-06-14T01:40:50;98258.66;;;21.32;78.91
21236;BME280;10775;42.678;26.324;2023-06-14T01:43:18;98259.81;;;21.41;75.96
21236;BME280;10775;42.678;26.324;2023-06-14T01:45:45;98262.91;;;21.09;79.94
21236;BME280;10775;42.678;26.324;2023-06-14T01:48:12;98267.25;;;20.97;80.24
21236;BME280;10775;42.678;26.324;2023-06-14T01:50:38;98265.88;;;21.43;78.44
21236;BME280;10775;42.678;26.324;2023-06-14T01:53:06;98266.63;;;21.32;74.71
21236;BME280;10775;42.678;26.324;2023-06-14T01:55:32;98266.72;;;20.79;80.17
21236;BME280;10775;42.678;26.324;2023-06-14T01:58:02;98268.97;;;20.18;78.15
21236;BME280;10775;42.678;26.324;2023-06-14T02:00:28;98272.44;;;20.73;81.96
21236;BME280;10775;42.678;26.324;2023-06-14T02:02:53;98273.19;;;21.14;79.50
21236;BME280;10775;42.678;26.324;2023-06-14T02:05:19;98276.28;;;21.20;79.06
21236;BME280;10775;42.678;26.324;2023-06-14T02:07:45;98276.06;;;21.23;78.87
21236;BME280;10775;42.678;26.324;2023-06-14T02:10:11;98283.41;;;21.33;78.45
21236;BME280;10775;42.678;26.324;2023-06-14T02:12:37;98284.47;;;21.56;77.37
21236;BME280;10775;42.678;26.324;2023-06-14T02:15:02;98282.38;;;21.48;77.33
21236;BME280;10775;42.678;26.324;2023-06-14T02:17:29;98281.91;;;21.28;78.05
21236;BME280;10775;42.678;26.324;2023-06-14T02:19:54;98288.75;;;21.20;78.64
21236;BME280;10775;42.678;26.324;2023-06-14T02:22:22;98294.69;;;21.23;78.13
21236;BME280;10775;42.678;26.324;2023-06-14T02:24:48;98290.66;;;21.05;78.57
21236;BME280;10775;42.678;26.324;2023-06-14T02:27:14;98294.28;;;21.17;78.63
21236;BME280;10775;42.678;26.324;2023-06-14T02:29:40;98290.13;;;21.13;78.62
21236;BME280;10775;42.678;26.324;2023-06-14T02:32:05;98285.25;;;21.19;78.30
21236;BME280;10775;42.678;26.324;2023-06-14T02:34:35;98290.22;;;21.24;78.07
21236;BME280;10775;42.678;26.324;2023-06-14T02:37:02;98286.09;;;21.20;78.16
21236;BME280;10775;42.678;26.324;2023-06-14T02:39:30;98291.72;;;21.28;77.81
21236;BME280;10775;42.678;26.324;2023-06-14T02:41:56;98292.13;;;21.35;77.45
21236;BME280;10775;42.678;26.324;2023-06-14T02:44:25;98295.44;;;21.25;77.34
21236;BME280;10775;42.678;26.324;2023-06-14T02:46:54;98295.09;;;20.79;79.37
21236;BME280;10775;42.678;26.324;2023-06-14T02:49:21;98301.06;;;21.08;79.02
21236;BME280;10775;42.678;26.324;2023-06-14T02:51:47;98303.34;;;21.40;77.45
21236;BME280;10775;42.678;26.324;2023-06-14T02:54:12;98304.38;;;21.50;76.47
21236;BME280;10775;42.678;26.324;2023-06-14T02:56:38;98300.00;;;21.36;76.52
21236;BME280;10775;42.678;26.324;2023-06-14T02:59:04;98307.44;;;21.31;77.29
21236;BME280;10775;42.678;26.324;2023-06-14T03:01:29;98305.63;;;21.32;77.01
21236;BME280;10775;42.678;26.324;2023-06-14T03:04:02;98307.22;;;21.21;77.26
21236;BME280;10775;42.678;26.324;2023-06-14T03:06:29;98299.38;;;21.45;76.48
21236;BME280;10775;42.678;26.324;2023-06-14T03:08:59;98309.56;;;21.26;77.02
21236;BME280;10775;42.678;26.324;2023-06-14T03:11:25;98314.06;;;21.38;76.73
21236;BME280;10775;42.678;26.324;2023-06-14T03:13:51;98308.50;;;21.03;73.73
21236;BME280;10775;42.678;26.324;2023-06-14T03:16:17;98314.91;;;20.73;79.34
21236;BME280;10775;42.678;26.324;2023-06-14T03:18:47;98314.28;;;19.74;76.08
21236;BME280;10775;42.678;26.324;2023-06-14T03:21:12;98311.38;;;20.06;83.18
21236;BME280;10775;42.678;26.324;2023-06-14T03:23:38;98312.59;;;20.41;81.04
21236;BME280;10775;42.678;26.324;2023-06-14T03:26:03;98313.34;;;20.16;81.92
21236;BME280;10775;42.678;26.324;2023-06-14T03:28:29;98313.78;;;20.50;80.73
21236;BME280;10775;42.678;26.324;2023-06-14T03:30:54;98306.78;;;20.89;79.20
21236;BME280;10775;42.678;26.324;2023-06-14T03:33:20;98300.19;;;20.95;78.54
21236;BME280;10775;42.678;26.324;2023-06-14T03:35:46;98305.00;;;21.02;78.08
21236;BME280;10775;42.678;26.324;2023-06-14T03:38:11;98303.84;;;21.19;77.41
21236;BME280;10775;42.678;26.324;2023-06-14T03:40:37;98308.13;;;21.47;75.93
21236;BME280;10775;42.678;26.324;2023-06-14T03:43:03;98303.13;;;21.43;76.04
21236;BME280;10775;42.678;26.324;2023-06-14T03:45:28;98301.53;;;21.40;75.68
21236;BME280;10775;42.678;26.324;2023-06-14T03:47:54;98307.03;;;21.24;76.51
21236;BME280;10775;42.678;26.324;2023-06-14T03:50:20;98313.81;;;21.16;76.71
21236;BME280;10775;42.678;26.324;2023-06-14T03:52:48;98308.94;;;20.97;77.36
21236;BME280;10775;42.678;26.324;2023-06-14T03:55:13;98315.59;;;20.77;78.44
21236;BME280;10775;42.678;26.324;2023-06-14T03:57:41;98314.25;;;20.97;78.05
21236;BME280;10775;42.678;26.324;2023-06-14T04:00:08;98311.16;;;21.16;76.62
21236;BME280;10775;42.678;26.324;2023-06-14T04:02:34;98311.69;;;21.21;76.61
21236;BME280;10775;42.678;26.324;2023-06-14T04:05:02;98313.19;;;21.12;76.69
21236;BME280;10775;42.678;26.324;2023-06-14T04:07:27;98309.88;;;21.21;76.32
21236;BME280;10775;42.678;26.324;2023-06-14T04:09:54;98314.25;;;21.22;76.19
21236;BME280;10775;42.678;26.324;2023-06-14T04:12:19;98316.91;;;21.22;75.95
21236;BME280;10775;42.678;26.324;2023-06-14T04:14:45;98314.47;;;21.06;76.63
21236;BME280;10775;42.678;26.324;2023-06-14T04:17:11;98317.00;;;20.95;73.42
21236;BME280;10775;42.678;26.324;2023-06-14T04:19:36;98308.03;;;20.83;77.44
21236;BME280;10775;42.678;26.324;2023-06-14T04:22:02;98321.78;;;21.03;77.22
21236;BME280;10775;42.678;26.324;2023-06-14T04:24:28;98316.69;;;21.13;76.06
21236;BME280;10775;42.678;26.324;2023-06-14T04:27:01;98321.78;;;21.28;75.79
21236;BME280;10775;42.678;26.324;2023-06-14T04:29:26;98326.75;;;20.82;74.16
21236;BME280;10775;42.678;26.324;2023-06-14T04:31:55;98320.63;;;21.20;76.05
21236;BME280;10775;42.678;26.324;2023-06-14T04:34:27;98325.63;;;21.12;76.09
21236;BME280;10775;42.678;26.324;2023-06-14T04:36:59;98338.72;;;21.27;75.75
21236;BME280;10775;42.678;26.324;2023-06-14T04:39:26;98345.88;;;21.40;75.12
21236;BME280;10775;42.678;26.324;2023-06-14T04:41:53;98343.63;;;21.46;74.62
21236;BME280;10775;42.678;26.324;2023-06-14T04:44:23;98346.72;;;21.40;74.93
21236;BME280;10775;42.678;26.324;2023-06-14T04:46:49;98341.28;;;21.42;74.48
21236;BME280;10775;42.678;26.324;2023-06-14T04:49:15;98352.41;;;21.34;74.58
21236;BME280;10775;42.678;26.324;2023-06-14T04:51:42;98354.44;;;21.18;75.76
21236;BME280;10775;42.678;26.324;2023-06-14T04:54:11;98359.78;;;21.43;74.38
21236;BME280;10775;42.678;26.324;2023-06-14T04:56:42;98346.81;;;21.64;73.77
21236;BME280;10775;42.678;26.324;2023-06-14T04:59:09;98353.41;;;21.71;73.42
21236;BME280;10775;42.678;26.324;2023-06-14T05:01:36;98351.47;;;21.74;73.35
21236;BME280;10775;42.678;26.324;2023-06-14T05:04:02;98354.47;;;21.69;73.14
21236;BME280;10775;42.678;26.324;2023-06-14T05:06:28;98352.78;;;21.68;73.16
21236;BME280;10775;42.678;26.324;2023-06-14T05:08:54;98358.91;;;21.81;72.70
21236;BME280;10775;42.678;26.324;2023-06-14T05:11:20;98362.19;;;21.34;74.78
21236;BME280;10775;42.678;26.324;2023-06-14T05:13:45;98361.91;;;21.64;73.26
21236;BME280;10775;42.678;26.324;2023-06-14T05:16:12;98363.72;;;21.51;73.49
21236;BME280;10775;42.678;26.324;2023-06-14T05:18:38;98368.31;;;21.61;73.43
21236;BME280;10775;42.678;26.324;2023-06-14T05:21:05;98365.09;;;21.82;72.77
21236;BME280;10775;42.678;26.324;2023-06-14T05:23:31;98367.75;;;21.69;72.67
21236;BME280;10775;42.678;26.324;2023-06-14T05:25:56;98370.09;;;21.74;72.44
21236;BME280;10775;42.678;26.324;2023-06-14T05:28:22;98372.03;;;21.59;73.01
21236;BME280;10775;42.678;26.324;2023-06-14T05:30:48;98374.25;;;21.65;73.24
21236;BME280;10775;42.678;26.324;2023-06-14T05:33:13;98377.75;;;21.91;72.04
21236;BME280;10775;42.678;26.324;2023-06-14T05:35:39;98378.78;;;22.01;71.52
21236;BME280;10775;42.678;26.324;2023-06-14T05:38:04;98380.19;;;21.94;71.73
21236;BME280;10775;42.678;26.324;2023-06-14T05:40:30;98372.53;;;21.89;71.77
21236;BME280;10775;42.678;26.324;2023-06-14T05:42:56;98379.34;;;21.93;71.68
21236;BME280;10775;42.678;26.324;2023-06-14T05:45:21;98382.69;;;22.08;70.95
21236;BME280;10775;42.678;26.324;2023-06-14T05:47:47;98376.00;;;22.03;71.10
21236;BME280;10775;42.678;26.324;2023-06-14T05:50:12;98378.25;;;22.09;70.81
21236;BME280;10775;42.678;26.324;2023-06-14T05:52:38;98380.53;;;21.77;71.08
21236;BME280;10775;42.678;26.324;2023-06-14T05:55:04;98385.47;;;22.07;71.08
21236;BME280;10775;42.678;26.324;2023-06-14T05:57:30;98378.41;;;22.19;70.44
21236;BME280;10775;42.678;26.324;2023-06-14T05:59:55;98390.75;;;22.32;69.78
21236;BME280;10775;42.678;26.324;2023-06-14T06:02:21;98387.59;;;22.27;70.20
21236;BME280;10775;42.678;26.324;2023-06-14T06:04:46;98383.34;;;22.25;70.21
21236;BME280;10775;42.678;26.324;2023-06-14T06:07:12;98384.38;;;22.35;69.72
21236;BME280;10775;42.678;26.324;2023-06-14T06:09:37;98393.75;;;22.28;69.70
21236;BME280;10775;42.678;26.324;2023-06-14T06:12:04;98390.75;;;22.32;69.86
21236;BME280;10775;42.678;26.324;2023-06-14T06:14:31;98397.81;;;22.57;68.91
21236;BME280;10775;42.678;26.324;2023-06-14T06:16:56;98400.69;;;23.03;67.47
21236;BME280;10775;42.678;26.324;2023-06-14T06:19:22;98401.13;;;22.96;67.35
21236;BME280;10775;42.678;26.324;2023-06-14T06:21:47;98405.59;;;23.20;68.45
21236;BME280;10775;42.678;26.324;2023-06-14T06:24:13;98407.19;;;25.12;61.85
21236;BME280;10775;42.678;26.324;2023-06-14T06:26:38;98407.03;;;25.25;59.25
21236;BME280;10775;42.678;26.324;2023-06-14T06:29:05;98402.09;;;25.09;60.05
21236;BME280;10775;42.678;26.324;2023-06-14T06:31:30;98408.22;;;25.84;58.38
21236;BME280;10775;42.678;26.324;2023-06-14T06:33:55;98400.94;;;26.96;55.55
21236;BME280;10775;42.678;26.324;2023-06-14T06:36:21;98402.78;;;28.01;51.88
21236;BME280;10775;42.678;26.324;2023-06-14T06:38:47;98404.72;;;27.62;54.93
21236;BME280;10775;42.678;26.324;2023-06-14T06:41:13;98402.66;;;28.30;51.41
21236;BME280;10775;42.678;26.324;2023-06-14T06:43:38;98396.00;;;28.98;49.29
21236;BME280;10775;42.678;26.324;2023-06-14T06:46:04;98402.75;;;29.02;49.13
21236;BME280;10775;42.678;26.324;2023-06-14T06:48:29;98401.81;;;29.29;48.63
21236;BME280;10775;42.678;26.324;2023-06-14T06:50:55;98400.59;;;29.23;47.67
21236;BME280;10775;42.678;26.324;2023-06-14T06:53:20;98405.28;;;29.03;50.41
21236;BME280;10775;42.678;26.324;2023-06-14T06:55:46;98392.94;;;29.11;50.63
21236;BME280;10775;42.678;26.324;2023-06-14T06:58:12;98395.56;;;29.99;46.89
21236;BME280;10775;42.678;26.324;2023-06-14T07:00:37;98391.78;;;30.60;46.39
21236;BME280;10775;42.678;26.324;2023-06-14T07:03:03;98384.53;;;30.10;45.82
21236;BME280;10775;42.678;26.324;2023-06-14T07:05:29;98378.47;;;30.16;45.45
21236;BME280;10775;42.678;26.324;2023-06-14T07:07:55;98389.69;;;29.69;46.58
21236;BME280;10775;42.678;26.324;2023-06-14T07:10:20;98392.66;;;29.84;46.87
21236;BME280;10775;42.678;26.324;2023-06-14T07:12:46;98381.91;;;30.26;45.76
21236;BME280;10775;42.678;26.324;2023-06-14T07:15:12;98386.72;;;30.65;45.14
21236;BME280;10775;42.678;26.324;2023-06-14T07:17:37;98398.41;;;30.74;43.70
21236;BME280;10775;42.678;26.324;2023-06-14T07:20:03;98401.03;;;28.65;48.11
21236;BME280;10775;42.678;26.324;2023-06-14T07:22:42;98396.72;;;26.64;52.50
21236;BME280;10775;42.678;26.324;2023-06-14T07:25:09;98405.22;;;26.39;55.25
21236;BME280;10775;42.678;26.324;2023-06-14T07:27:35;98396.38;;;25.56;56.90
21236;BME280;10775;42.678;26.324;2023-06-14T07:30:00;98397.59;;;26.34;55.53
21236;BME280;10775;42.678;26.324;2023-06-14T07:32:26;98400.69;;;27.95;53.23
21236;BME280;10775;42.678;26.324;2023-06-14T07:34:51;98391.50;;;26.82;54.30
21236;BME280;10775;42.678;26.324;2023-06-14T07:37:17;98392.28;;;29.35;49.50
21236;BME280;10775;42.678;26.324;2023-06-14T07:39:42;98387.91;;;29.60;47.69
21236;BME280;10775;42.678;26.324;2023-06-14T07:42:08;98382.94;;;30.33;44.89
21236;BME280;10775;42.678;26.324;2023-06-14T07:44:33;98388.28;;;29.39;45.88
21236;BME280;10775;42.678;26.324;2023-06-14T07:46:59;98387.97;;;29.94;45.87
21236;BME280;10775;42.678;26.324;2023-06-14T07:49:25;98383.44;;;30.96;42.68
21236;BME280;10775;42.678;26.324;2023-06-14T07:51:51;98381.84;;;29.58;46.57
21236;BME280;10775;42.678;26.324;2023-06-14T07:54:16;98391.84;;;28.12;48.75
21236;BME280;10775;42.678;26.324;2023-06-14T07:56:42;98385.28;;;27.97;51.08
21236;BME280;10775;42.678;26.324;2023-06-14T07:59:08;98393.31;;;27.01;52.67
21236;BME280;10775;42.678;26.324;2023-06-14T08:01:34;98392.25;;;26.34;54.03
21236;BME280;10775;42.678;26.324;2023-06-14T08:04:00;98398.34;;;25.75;55.94
21236;BME280;10775;42.678;26.324;2023-06-14T08:06:26;98397.44;;;26.26;54.58
21236;BME280;10775;42.678;26.324;2023-06-14T08:08:52;98391.69;;;26.31;54.48
21236;BME280;10775;42.678;26.324;2023-06-14T08:11:17;98392.81;;;25.97;55.70
21236;BME280;10775;42.678;26.324;2023-06-14T08:13:43;98396.19;;;27.76;53.00
21236;BME280;10775;42.678;26.324;2023-06-14T08:16:09;98393.06;;;29.09;47.45
21236;BME280;10775;42.678;26.324;2023-06-14T08:18:34;98392.38;;;27.79;49.90
21236;BME280;10775;42.678;26.324;2023-06-14T08:21:00;98399.41;;;26.94;52.19
21236;BME280;10775;42.678;26.324;2023-06-14T08:23:25;98393.59;;;26.79;52.90
21236;BME280;10775;42.678;26.324;2023-06-14T08:25:51;98387.41;;;26.59;53.50
21236;BME280;10775;42.678;26.324;2023-06-14T08:28:16;98388.81;;;26.73;53.88
21236;BME280;10775;42.678;26.324;2023-06-14T08:30:42;98385.63;;;26.48;53.84
21236;BME280;10775;42.678;26.324;2023-06-14T08:33:08;98383.66;;;27.67;51.14
21236;BME280;10775;42.678;26.324;2023-06-14T08:35:33;98384.38;;;28.06;50.22
21236;BME280;10775;42.678;26.324;2023-06-14T08:38:02;98378.53;;;29.02;47.86
21236;BME280;10775;42.678;26.324;2023-06-14T08:40:30;98375.78;;;29.82;45.62
21236;BME280;10775;42.678;26.324;2023-06-14T08:42:56;98378.63;;;29.28;46.23
21236;BME280;10775;42.678;26.324;2023-06-14T08:45:22;98375.81;;;27.46;49.16
21236;BME280;10775;42.678;26.324;2023-06-14T08:47:49;98376.22;;;26.63;52.43
21236;BME280;10775;42.678;26.324;2023-06-14T08:50:23;98372.88;;;26.91;53.01
21236;BME280;10775;42.678;26.324;2023-06-14T08:52:54;98375.34;;;26.43;52.23
21236;BME280;10775;42.678;26.324;2023-06-14T08:55:21;98373.56;;;26.73;53.47
21236;BME280;10775;42.678;26.324;2023-06-14T08:57:51;98372.84;;;28.24;49.16
21236;BME280;10775;42.678;26.324;2023-06-14T09:00:17;98372.72;;;27.41;50.94
21236;BME280;10775;42.678;26.324;2023-06-14T09:02:43;98364.28;;;26.77;50.13
21236;BME280;10775;42.678;26.324;2023-06-14T09:05:13;98369.59;;;26.58;51.81
21236;BME280;10775;42.678;26.324;2023-06-14T09:07:41;98369.03;;;26.74;51.58
21236;BME280;10775;42.678;26.324;2023-06-14T09:10:14;98371.59;;;27.04;49.20
21236;BME280;10775;42.678;26.324;2023-06-14T09:12:40;98364.34;;;27.53;49.88
21236;BME280;10775;42.678;26.324;2023-06-14T09:15:06;98361.53;;;28.83;47.24
21236;BME280;10775;42.678;26.324;2023-06-14T09:17:34;98374.22;;;28.91;46.36
21236;BME280;10775;42.678;26.324;2023-06-14T09:20:00;98365.25;;;28.09;47.19
21236;BME280;10775;42.678;26.324;2023-06-14T09:22:29;98373.88;;;28.13;46.85
21236;BME280;10775;42.678;26.324;2023-06-14T09:24:55;98375.84;;;28.48;47.15
21236;BME280;10775;42.678;26.324;2023-06-14T09:27:20;98375.22;;;28.54;46.70
21236;BME280;10775;42.678;26.324;2023-06-14T09:29:45;98373.25;;;28.56;48.21
21236;BME280;10775;42.678;26.324;2023-06-14T09:32:11;98373.84;;;29.22;46.74
21236;BME280;10775;42.678;26.324;2023-06-14T09:34:36;98375.31;;;28.35;46.90
21236;BME280;10775;42.678;26.324;2023-06-14T09:37:02;98388.81;;;27.02;50.22
21236;BME280;10775;42.678;26.324;2023-06-14T09:39:28;98380.22;;;27.08;50.22
21236;BME280;10775;42.678;26.324;2023-06-14T09:41:53;98378.94;;;26.93;50.33
21236;BME280;10775;42.678;26.324;2023-06-14T09:44:19;98373.84;;;27.09;50.50
21236;BME280;10775;42.678;26.324;2023-06-14T09:46:46;98375.88;;;28.11;49.51
21236;BME280;10775;42.678;26.324;2023-06-14T09:49:12;98383.22;;;28.36;47.36
21236;BME280;10775;42.678;26.324;2023-06-14T09:51:45;98384.81;;;28.02;49.42
21236;BME280;10775;42.678;26.324;2023-06-14T09:54:15;98380.81;;;27.68;49.37
21236;BME280;10775;42.678;26.324;2023-06-14T09:56:45;98383.44;;;27.41;50.83
21236;BME280;10775;42.678;26.324;2023-06-14T09:59:10;98377.41;;;27.19;51.48
21236;BME280;10775;42.678;26.324;2023-06-14T10:01:42;98379.91;;;26.92;50.61
21236;BME280;10775;42.678;26.324;2023-06-14T10:04:09;98383.03;;;26.77;50.71
21236;BME280;10775;42.678;26.324;2023-06-14T10:06:40;98386.13;;;26.73;51.10
21236;BME280;10775;42.678;26.324;2023-06-14T10:09:08;98374.78;;;25.99;53.34
21236;BME280;10775;42.678;26.324;2023-06-14T10:11:35;98382.63;;;25.60;54.67
21236;BME280;10775;42.678;26.324;2023-06-14T10:14:04;98375.50;;;26.01;53.52
21236;BME280;10775;42.678;26.324;2023-06-14T10:19:17;98378.69;;;25.86;54.64
21236;BME280;10775;42.678;26.324;2023-06-14T10:22:18;98369.81;;;26.26;54.32
21236;BME280;10775;42.678;26.324;2023-06-14T10:24:48;98372.38;;;26.37;52.36
21236;BME280;10775;42.678;26.324;2023-06-14T10:27:15;98367.34;;;26.13;52.66
21236;BME280;10775;42.678;26.324;2023-06-14T10:32:23;98370.47;;;26.68;53.10
21236;BME280;10775;42.678;26.324;2023-06-14T10:34:54;98372.16;;;26.79;52.35
21236;BME280;10775;42.678;26.324;2023-06-14T10:37:20;98371.88;;;26.92;52.65
21236;BME280;10775;42.678;26.324;2023-06-14T10:39:46;98370.19;;;27.00;50.97
21236;BME280;10775;42.678;26.324;2023-06-14T10:42:12;98368.44;;;26.41;51.49
21236;BME280;10775;42.678;26.324;2023-06-14T10:44:50;98361.88;;;25.84;53.45
21236;BME280;10775;42.678;26.324;2023-06-14T10:47:24;98372.03;;;26.80;53.21
21236;BME280;10775;42.678;26.324;2023-06-14T10:49:52;98371.47;;;27.82;50.44
21236;BME280;10775;42.678;26.324;2023-06-14T10:52:23;98371.72;;;27.89;50.50
21236;BME280;10775;42.678;26.324;2023-06-14T10:57:34;98376.41;;;27.10;51.99
21236;BME280;10775;42.678;26.324;2023-06-14T11:00:01;98369.31;;;27.09;52.54
21236;BME280;10775;42.678;26.324;2023-06-14T11:10:40;98365.91;;;27.17;52.33
21236;BME280;10775;42.678;26.324;2023-06-14T11:13:07;98364.53;;;26.94;52.56
21236;BME280;10775;42.678;26.324;2023-06-14T11:15:35;98365.41;;;26.75;53.61
21236;BME280;10775;42.678;26.324;2023-06-14T11:18:01;98363.28;;;26.78;55.06
21236;BME280;10775;42.678;26.324;2023-06-14T11:20:30;98356.06;;;26.88;52.94
21236;BME280;10775;42.678;26.324;2023-06-14T11:22:56;98359.03;;;26.85;52.89
21236;BME280;10775;42.678;26.324;2023-06-14T11:25:21;98358.88;;;26.97;53.01
21236;BME280;10775;42.678;26.324;2023-06-14T11:27:49;98361.59;;;26.77;53.09
21236;BME280;10775;42.678;26.324;2023-06-14T11:30:15;98359.44;;;26.71;54.20
21236;BME280;10775;42.678;26.324;2023-06-14T11:32:41;98365.66;;;27.01;53.15
21236;BME280;10775;42.678;26.324;2023-06-14T11:35:08;98357.75;;;26.99;54.04
21236;BME280;10775;42.678;26.324;2023-06-14T11:37:36;98351.84;;;26.96;52.71
21236;BME280;10775;42.678;26.324;2023-06-14T11:40:06;98355.97;;;26.20;54.29
21236;BME280;10775;42.678;26.324;2023-06-14T11:42:35;98342.41;;;26.12;54.14
21236;BME280;10775;42.678;26.324;2023-06-14T11:45:02;98345.69;;;26.35;54.93
21236;BME280;10775;42.678;26.324;2023-06-14T11:47:32;98351.50;;;25.90;55.04
21236;BME280;10775;42.678;26.324;2023-06-14T11:50:02;98360.00;;;25.95;54.61
21236;BME280;10775;42.678;26.324;2023-06-14T11:52:28;98355.28;;;26.28;54.63
21236;BME280;10775;42.678;26.324;2023-06-14T11:54:54;98356.81;;;26.21;54.33
21236;BME280;10775;42.678;26.324;2023-06-14T11:57:20;98354.41;;;25.56;54.73
21236;BME280;10775;42.678;26.324;2023-06-14T11:59:46;98353.34;;;25.38;55.60
21236;BME280;10775;42.678;26.324;2023-06-14T12:02:15;98351.66;;;25.37;55.83
21236;BME280;10775;42.678;26.324;2023-06-14T12:04:42;98344.47;;;25.68;57.03
21236;BME280;10775;42.678;26.324;2023-06-14T12:07:11;98348.84;;;26.00;55.27
21236;BME280;10775;42.678;26.324;2023-06-14T12:09:41;98345.16;;;25.91;55.81
21236;BME280;10775;42.678;26.324;2023-06-14T12:12:09;98350.44;;;25.51;55.42
21236;BME280;10775;42.678;26.324;2023-06-14T12:14:36;98347.41;;;25.34;55.54
21236;BME280;10775;42.678;26.324;2023-06-14T12:17:05;98346.75;;;25.73;57.26
21236;BME280;10775;42.678;26.324;2023-06-14T12:19:44;98350.16;;;26.06;57.02
21236;BME280;10775;42.678;26.324;2023-06-14T12:22:11;98346.81;;;26.23;55.37
21236;BME280;10775;42.678;26.324;2023-06-14T12:24:37;98347.66;;;25.83;55.71
21236;BME280;10775;42.678;26.324;2023-06-14T12:27:03;98347.88;;;25.70;57.21
21236;BME280;10775;42.678;26.324;2023-06-14T12:29:32;98335.16;;;25.63;56.24
21236;BME280;10775;42.678;26.324;2023-06-14T12:31:58;98338.44;;;25.76;57.29
21236;BME280;10775;42.678;26.324;2023-06-14T12:34:24;98334.72;;;25.88;56.91
21236;BME280;10775;42.678;26.324;2023-06-14T12:36:50;98332.25;;;25.75;56.67
21236;BME280;10775;42.678;26.324;2023-06-14T12:39:16;98336.16;;;25.71;57.25
21236;BME280;10775;42.678;26.324;2023-06-14T12:41:42;98327.13;;;25.93;58.79
21236;BME280;10775;42.678;26.324;2023-06-14T12:44:07;98328.69;;;25.96;57.39
21236;BME280;10775;42.678;26.324;2023-06-14T12:46:34;98333.53;;;26.12;57.60
21236;BME280;10775;42.678;26.324;2023-06-14T12:49:00;98331.13;;;26.09;57.30
21236;BME280;10775;42.678;26.324;2023-06-14T12:51:26;98323.63;;;26.02;57.85
21236;BME280;10775;42.678;26.324;2023-06-14T12:53:52;98323.47;;;25.94;57.58
21236;BME280;10775;42.678;26.324;2023-06-14T12:56:17;98327.91;;;25.84;57.66
21236;BME280;10775;42.678;26.324;2023-06-14T12:58:43;98326.13;;;25.64;57.26
21236;BME280;10775;42.678;26.324;2023-06-14T13:01:08;98323.09;;;25.78;57.96
21236;BME280;10775;42.678;26.324;2023-06-14T13:03:34;98318.78;;;25.87;57.69
21236;BME280;10775;42.678;26.324;2023-06-14T13:06:00;98317.72;;;25.99;56.94
21236;BME280;10775;42.678;26.324;2023-06-14T13:08:26;98318.19;;;25.83;55.70
21236;BME280;10775;42.678;26.324;2023-06-14T13:10:51;98315.72;;;25.91;56.43